createdAt,value
2018-12-08T00:01:00.469Z,28.97
2018-12-08T00:03:34.635Z,29.13
2018-12-08T00:06:08.842Z,29.07
2018-12-08T00:08:43.065Z,28.90
2018-12-08T00:11:17.126Z,28.40
2018-12-08T00:13:51.182Z,28.37
2018-12-08T00:16:25.227Z,28.67
2018-12-08T00:18:59.294Z,28.67
2018-12-08T00:21:33.340Z,28.67
2018-12-08T00:24:07.787Z,28.70
2018-12-08T00:26:41.932Z,28.27
2018-12-08T00:29:16.010Z,29.23
2018-12-08T00:31:51.187Z,28.30
2018-12-08T00:34:25.262Z,28.40
2018-12-08T00:36:59.309Z,28.00
2018-12-08T00:39:33.480Z,27.70
2018-12-08T00:42:07.615Z,28.20
2018-12-08T00:44:41.860Z,28.60
2018-12-08T00:47:15.882Z,28.53
2018-12-08T00:49:49.954Z,28.33
2018-12-08T00:52:26.322Z,28.73
2018-12-08T00:55:00.385Z,28.57
2018-12-08T00:57:34.417Z,28.13
2018-12-08T01:00:08.619Z,27.90
2018-12-08T01:02:43.765Z,28.00
2018-12-08T01:05:17.826Z,28.70
2018-12-08T01:07:51.862Z,27.73
2018-12-08T01:10:25.919Z,27.60
2018-12-08T01:12:59.961Z,27.93
2018-12-08T01:15:36.126Z,28.63
2018-12-08T01:18:10.162Z,27.80
2018-12-08T01:20:44.206Z,28.10
2018-12-08T01:23:18.241Z,27.83
2018-12-08T01:25:52.349Z,28.17
2018-12-08T01:28:26.378Z,27.93
2018-12-08T01:31:00.450Z,28.47
2018-12-08T01:33:34.479Z,28.10
2018-12-08T01:36:08.540Z,27.73
2018-12-08T01:38:42.589Z,28.20
2018-12-08T01:41:17.778Z,28.10
2018-12-08T01:43:51.801Z,27.83
2018-12-08T01:46:25.859Z,27.83
2018-12-08T01:48:59.928Z,28.30
2018-12-08T01:51:33.978Z,28.30
2018-12-08T01:54:08.105Z,27.87
2018-12-08T01:56:42.148Z,27.93
2018-12-08T01:59:16.198Z,28.93
2018-12-08T02:01:50.235Z,28.17
2018-12-08T02:04:24.311Z,28.63
2018-12-08T02:06:58.458Z,27.87
2018-12-08T02:09:32.562Z,27.73
2018-12-08T02:12:06.607Z,27.60
2018-12-08T02:14:40.673Z,28.27
2018-12-08T02:17:14.709Z,27.43
2018-12-08T02:19:48.777Z,28.63
2018-12-08T02:22:22.827Z,27.93
2018-12-08T02:24:56.897Z,28.60
2018-12-08T02:27:30.931Z,29.17
2018-12-08T02:30:05.243Z,28.03
2018-12-08T02:32:39.342Z,29.10
2018-12-08T02:35:13.378Z,28.60
2018-12-08T02:37:47.443Z,28.23
2018-12-08T02:40:21.641Z,27.83
2018-12-08T02:42:55.689Z,27.90
2018-12-08T02:45:29.759Z,27.87
2018-12-08T02:48:05.022Z,27.83
2018-12-08T02:50:39.134Z,27.83
2018-12-08T02:53:13.170Z,28.10
2018-12-08T02:55:47.221Z,27.50
2018-12-08T02:58:21.242Z,27.60
2018-12-08T03:00:55.300Z,28.37
2018-12-08T03:03:30.371Z,27.63
2018-12-08T03:06:04.450Z,27.77
2018-12-08T03:08:38.555Z,27.53
2018-12-08T03:11:12.616Z,27.23
2018-12-08T03:13:46.647Z,27.43
2018-12-08T03:16:25.847Z,27.90
2018-12-08T03:18:59.967Z,27.93
2018-12-08T03:21:34.389Z,28.40
2018-12-08T03:24:08.474Z,28.17
2018-12-08T03:26:42.637Z,28.20
2018-12-08T03:29:18.892Z,27.80
2018-12-08T03:31:53.043Z,28.37
2018-12-08T03:34:27.140Z,29.00
2018-12-08T03:37:01.523Z,34.63
2018-12-08T03:39:35.592Z,31.30
2018-12-08T03:42:09.646Z,34.70
2018-12-08T03:44:43.727Z,30.63
2018-12-08T03:47:17.769Z,29.53
2018-12-08T03:49:51.957Z,28.97
2018-12-08T03:52:26.114Z,29.23
2018-12-08T03:55:00.182Z,29.63
2018-12-08T03:57:34.257Z,28.60
2018-12-08T04:00:08.486Z,29.57
2018-12-08T04:02:43.597Z,28.40
2018-12-08T04:05:17.658Z,28.60
2018-12-08T04:07:51.698Z,27.57
2018-12-08T04:10:25.777Z,27.20
2018-12-08T04:12:59.830Z,27.33
2018-12-08T04:15:34.750Z,27.53
2018-12-08T04:18:08.822Z,27.63
2018-12-08T04:20:42.891Z,27.97
2018-12-08T04:23:17.012Z,27.37
2018-12-08T04:25:51.078Z,27.80
2018-12-08T04:28:25.114Z,27.53
2018-12-08T04:30:59.221Z,27.60
2018-12-08T04:33:33.375Z,27.30
2018-12-08T04:36:07.449Z,27.03
2018-12-08T04:38:41.488Z,27.13
2018-12-08T04:41:15.589Z,27.37
2018-12-08T04:43:51.189Z,27.07
2018-12-08T04:46:25.274Z,27.30
2018-12-08T04:48:59.313Z,27.27
2018-12-08T04:51:33.365Z,28.43
2018-12-08T04:54:07.411Z,27.60
2018-12-08T04:56:41.469Z,27.33
2018-12-08T04:59:15.630Z,27.53
2018-12-08T05:01:49.707Z,27.57
2018-12-08T05:04:23.846Z,27.10
2018-12-08T05:06:57.921Z,27.63
2018-12-08T05:09:31.976Z,27.13
2018-12-08T05:12:06.045Z,27.60
2018-12-08T05:14:40.077Z,27.70
2018-12-08T05:17:14.272Z,27.10
2018-12-08T05:19:48.330Z,27.60
2018-12-08T05:22:22.390Z,26.97
2018-12-08T05:24:56.455Z,28.00
2018-12-08T05:27:30.545Z,27.37
2018-12-08T05:30:05.829Z,28.50
2018-12-08T05:32:39.893Z,27.37
2018-12-08T05:35:14.249Z,27.23
2018-12-08T05:37:48.289Z,27.33
2018-12-08T05:40:22.481Z,27.73
2018-12-08T05:42:58.656Z,27.10
2018-12-08T05:45:32.771Z,27.23
2018-12-08T05:48:06.933Z,27.37
2018-12-08T05:50:41.032Z,28.30
2018-12-08T05:53:15.082Z,27.20
2018-12-08T05:55:49.190Z,27.47
2018-12-08T05:58:23.250Z,27.20
2018-12-08T06:00:57.322Z,27.37
2018-12-08T06:03:31.374Z,27.07
2018-12-08T06:06:05.470Z,28.87
2018-12-08T06:08:39.569Z,27.70
2018-12-08T06:11:13.635Z,27.00
2018-12-08T06:13:47.701Z,27.53
2018-12-08T06:16:21.814Z,27.47
2018-12-08T06:18:55.897Z,27.37
2018-12-08T06:21:36.486Z,27.97
2018-12-08T06:24:10.555Z,27.83
2018-12-08T06:27:23.022Z,27.30
2018-12-08T06:29:57.058Z,27.53
2018-12-08T06:32:31.277Z,26.77
2018-12-08T06:35:05.482Z,27.50
2018-12-08T06:37:39.548Z,26.90
2018-12-08T06:40:14.714Z,27.07
2018-12-08T06:42:48.768Z,27.37
2018-12-08T06:45:22.918Z,27.87
2018-12-08T06:47:56.993Z,27.70
2018-12-08T06:50:31.128Z,27.80
2018-12-08T06:53:07.242Z,27.53
2018-12-08T06:55:41.282Z,28.50
2018-12-08T06:58:15.345Z,27.80
2018-12-08T07:00:49.406Z,28.33
2018-12-08T07:03:23.482Z,27.37
2018-12-08T07:05:57.551Z,27.50
2018-12-08T07:08:31.594Z,27.93
2018-12-08T07:11:05.668Z,27.87
2018-12-08T07:13:39.717Z,27.63
2018-12-08T07:16:13.773Z,28.03
2018-12-08T07:18:47.808Z,27.97
2018-12-08T07:21:21.868Z,27.83
2018-12-08T07:23:57.986Z,27.07
2018-12-08T07:26:32.131Z,28.30
2018-12-08T07:29:07.348Z,28.73
2018-12-08T07:31:41.452Z,28.53
2018-12-08T07:34:15.813Z,28.03
2018-12-08T07:36:49.883Z,26.90
2018-12-08T07:39:23.923Z,27.67
2018-12-08T07:41:58.001Z,27.70
2018-12-08T07:44:32.047Z,28.17
2018-12-08T07:47:06.101Z,27.77
2018-12-08T07:49:40.133Z,28.03
2018-12-08T07:52:14.402Z,27.93
2018-12-08T07:54:48.445Z,27.80
2018-12-08T07:57:22.600Z,28.40
2018-12-08T07:59:56.663Z,28.27
2018-12-08T08:02:30.729Z,28.07
2018-12-08T08:05:04.994Z,28.10
2018-12-08T08:07:39.090Z,27.57
2018-12-08T08:10:13.247Z,27.30
2018-12-08T08:12:47.309Z,27.87
2018-12-08T08:15:21.357Z,27.53
2018-12-08T08:17:55.434Z,27.10
2018-12-08T08:20:29.489Z,27.33
2018-12-08T08:23:03.547Z,27.93
2018-12-08T08:25:37.627Z,27.63
2018-12-08T08:28:11.773Z,27.77
2018-12-08T08:30:45.800Z,27.60
2018-12-08T08:33:19.938Z,28.53
2018-12-08T08:35:54.024Z,26.93
2018-12-08T08:38:28.094Z,26.90
2018-12-08T08:41:02.460Z,27.23
2018-12-08T08:43:36.633Z,27.83
2018-12-08T08:46:10.795Z,27.93
2018-12-08T08:48:44.905Z,27.70
2018-12-08T08:51:18.961Z,27.93
2018-12-08T08:53:53.023Z,28.23
2018-12-08T08:56:27.062Z,27.60
2018-12-08T08:59:01.589Z,28.00
2018-12-08T09:01:35.717Z,27.83
2018-12-08T09:04:09.804Z,27.67
2018-12-08T09:06:43.914Z,27.50
2018-12-08T09:09:17.981Z,27.63
2018-12-08T09:11:54.793Z,27.80
2018-12-08T09:14:28.858Z,27.30
2018-12-08T09:17:03.885Z,27.37
2018-12-08T09:19:38.067Z,27.73
2018-12-08T09:22:12.138Z,27.90
2018-12-08T09:24:46.178Z,27.77
2018-12-08T09:27:20.288Z,27.93
2018-12-08T09:29:54.327Z,28.10
2018-12-08T09:32:28.502Z,28.17
2018-12-08T09:35:04.122Z,27.90
2018-12-08T09:37:38.157Z,28.03
2018-12-08T09:40:12.223Z,28.43
2018-12-08T09:42:46.308Z,27.93
2018-12-08T09:45:20.530Z,27.83
2018-12-08T09:47:54.752Z,27.90
2018-12-08T09:50:28.809Z,28.17
2018-12-08T09:53:14.013Z,28.60
2018-12-08T09:55:49.157Z,28.60
2018-12-08T09:58:23.232Z,28.73
2018-12-08T10:01:01.863Z,28.50
2018-12-08T10:03:35.945Z,28.30
2018-12-08T10:06:11.118Z,28.57
2018-12-08T10:08:45.282Z,28.83
2018-12-08T10:11:19.415Z,27.40
2018-12-08T10:13:53.478Z,27.60
2018-12-08T10:16:27.569Z,28.07
2018-12-08T10:19:06.795Z,28.53
2018-12-08T10:21:40.833Z,27.87
2018-12-08T10:24:14.894Z,28.90
2018-12-08T10:26:50.048Z,28.73
2018-12-08T10:29:24.106Z,29.13
2018-12-08T10:31:58.169Z,29.23
2018-12-08T10:34:33.009Z,28.83
2018-12-08T10:37:07.188Z,29.00
2018-12-08T10:39:41.259Z,28.80
2018-12-08T10:42:15.306Z,29.00
2018-12-08T10:44:49.408Z,28.83
2018-12-08T10:47:25.492Z,28.37
2018-12-08T10:49:59.681Z,27.97
2018-12-08T10:52:33.739Z,28.80
2018-12-08T10:55:09.794Z,28.13
2018-12-08T10:57:43.833Z,28.67
2018-12-08T11:00:23.438Z,29.40
2018-12-08T11:03:01.757Z,28.20
2018-12-08T11:05:37.090Z,27.93
2018-12-08T11:08:11.135Z,28.40
2018-12-08T11:10:52.808Z,27.73
2018-12-08T11:13:27.013Z,27.97
2018-12-08T11:16:02.396Z,29.10
2018-12-08T11:18:36.610Z,28.53
2018-12-08T11:21:10.907Z,28.23
2018-12-08T11:23:48.927Z,27.97
2018-12-08T11:26:22.973Z,28.17
2018-12-08T11:28:57.136Z,28.80
2018-12-08T11:31:32.337Z,28.83
2018-12-08T11:34:06.410Z,27.90
2018-12-08T11:36:40.466Z,28.40
2018-12-08T11:39:14.602Z,28.20
2018-12-08T11:41:48.643Z,28.47
2018-12-08T11:44:23.045Z,28.03
2018-12-08T11:46:57.390Z,27.83
2018-12-08T11:49:31.462Z,29.00
2018-12-08T11:52:07.611Z,28.33
2018-12-08T11:54:41.741Z,28.47
2018-12-08T11:57:15.790Z,27.90
2018-12-08T11:59:49.858Z,27.60
2018-12-08T12:02:24.422Z,28.70
2018-12-08T12:04:58.500Z,27.90
2018-12-08T12:07:32.551Z,27.53
2018-12-08T12:10:06.732Z,28.00
2018-12-08T12:12:40.780Z,28.87
2018-12-08T12:15:16.161Z,27.93
2018-12-08T12:17:50.297Z,27.47
2018-12-08T12:20:24.441Z,29.20
2018-12-08T12:22:58.509Z,28.30
2018-12-08T12:25:32.782Z,27.40
2018-12-08T12:28:07.324Z,28.00
2018-12-08T12:30:41.445Z,27.83
2018-12-08T12:33:15.763Z,28.53
2018-12-08T12:35:49.927Z,27.80
2018-12-08T12:38:23.974Z,27.83
2018-12-08T12:41:00.273Z,27.83
2018-12-08T12:43:35.004Z,28.00
2018-12-08T12:46:09.061Z,27.80
2018-12-08T12:48:43.121Z,27.50
2018-12-08T12:51:17.230Z,27.47
2018-12-08T12:53:51.329Z,28.23
2018-12-08T12:56:25.459Z,28.37
2018-12-08T12:58:59.538Z,28.07
2018-12-08T13:01:33.601Z,28.23
2018-12-08T13:04:07.734Z,28.33
2018-12-08T13:06:41.808Z,28.20
2018-12-08T13:09:15.878Z,28.33
2018-12-08T13:11:50.151Z,28.40
2018-12-08T13:14:24.230Z,28.40
2018-12-08T13:16:58.401Z,28.13
2018-12-08T13:19:32.459Z,29.17
2018-12-08T13:22:06.762Z,27.63
2018-12-08T13:24:40.938Z,27.90
2018-12-08T13:27:14.977Z,28.40
2018-12-08T13:29:49.116Z,27.97
2018-12-08T13:32:23.190Z,28.53
2018-12-08T13:34:57.292Z,28.23
2018-12-08T13:37:31.357Z,28.60
2018-12-08T13:40:06.145Z,27.65
2018-12-08T13:42:41.224Z,27.53
2018-12-08T13:45:17.279Z,27.37
2018-12-08T13:47:51.384Z,28.53
2018-12-08T13:50:25.449Z,27.70
2018-12-08T13:52:59.537Z,27.73
2018-12-08T13:55:33.593Z,27.67
2018-12-08T13:58:07.769Z,27.87
2018-12-08T14:00:42.918Z,27.60
2018-12-08T14:03:16.961Z,28.10
2018-12-08T14:05:51.062Z,27.23
2018-12-08T14:08:25.367Z,27.53
2018-12-08T14:10:59.596Z,27.73
2018-12-08T14:13:33.653Z,27.23
2018-12-08T14:16:08.730Z,27.67
2018-12-08T14:18:42.783Z,27.70
2018-12-08T14:21:16.862Z,27.83
2018-12-08T14:23:50.897Z,28.17
2018-12-08T14:26:24.957Z,27.87
2018-12-08T14:28:59.010Z,27.87
2018-12-08T14:31:33.405Z,28.10
2018-12-08T14:34:07.741Z,27.93
2018-12-08T14:36:41.919Z,27.50
2018-12-08T14:39:16.165Z,28.00
2018-12-08T14:41:50.226Z,27.97
2018-12-08T14:44:24.276Z,27.93
2018-12-08T14:46:58.339Z,28.10
2018-12-08T14:49:32.489Z,28.07
2018-12-08T14:52:06.561Z,28.30
2018-12-08T14:54:40.623Z,28.20
2018-12-08T14:57:14.678Z,27.80
2018-12-08T14:59:49.255Z,28.63
2018-12-08T15:02:23.438Z,27.70
2018-12-08T15:04:57.487Z,27.70
2018-12-08T15:07:31.552Z,27.63
2018-12-08T15:10:09.342Z,27.55
2018-12-08T15:12:43.398Z,27.83
2018-12-08T15:15:17.436Z,27.77
2018-12-08T15:17:51.509Z,27.87
2018-12-08T15:20:25.556Z,28.33
2018-12-08T15:22:59.622Z,27.73
2018-12-08T15:25:33.697Z,27.70
2018-12-08T15:28:07.748Z,28.13
2018-12-08T15:30:41.798Z,28.43
2018-12-08T15:33:15.881Z,27.67
2018-12-08T15:35:49.943Z,27.80
2018-12-08T15:38:24.094Z,28.00
2018-12-08T15:40:58.254Z,27.80
2018-12-08T15:43:32.325Z,27.80
2018-12-08T15:46:06.394Z,27.37
2018-12-08T15:48:40.439Z,28.10
2018-12-08T15:51:14.630Z,27.77
2018-12-08T15:53:48.671Z,28.20
2018-12-08T15:56:22.737Z,28.37
2018-12-08T15:58:57.991Z,28.13
2018-12-08T16:01:33.101Z,27.70
2018-12-08T16:04:07.269Z,28.30
2018-12-08T16:06:41.453Z,27.83
2018-12-08T16:09:15.637Z,27.40
2018-12-08T16:11:49.717Z,28.20
2018-12-08T16:14:23.820Z,27.67
2018-12-08T16:16:57.993Z,27.73
2018-12-08T16:19:32.085Z,28.30
2018-12-08T16:22:11.355Z,28.17
2018-12-08T16:24:45.389Z,28.73
2018-12-08T16:27:19.470Z,28.73
2018-12-08T16:29:53.506Z,28.47
2018-12-08T16:32:27.716Z,28.30
2018-12-08T16:35:03.420Z,27.67
2018-12-08T16:37:37.685Z,28.07
2018-12-08T16:40:11.845Z,27.63
2018-12-08T16:42:47.041Z,27.80
2018-12-08T16:45:22.151Z,28.10
2018-12-08T16:47:56.232Z,27.90
2018-12-08T16:50:30.257Z,27.63
2018-12-08T16:53:06.434Z,27.83
2018-12-08T16:55:40.613Z,28.20
2018-12-08T16:58:14.774Z,27.93
2018-12-08T17:00:48.934Z,27.50
2018-12-08T17:03:23.228Z,28.80
2018-12-08T17:05:57.290Z,27.63
2018-12-08T17:08:32.469Z,28.23
2018-12-08T17:11:06.649Z,28.17
2018-12-08T17:13:41.813Z,27.77
2018-12-08T17:16:15.857Z,27.90
2018-12-08T17:18:49.942Z,28.30
2018-12-08T17:21:24.028Z,28.47
2018-12-08T17:23:58.197Z,28.27
2018-12-08T17:26:32.238Z,28.17
2018-12-08T17:29:07.405Z,27.53
2018-12-08T17:31:41.485Z,27.27
2018-12-08T17:34:15.657Z,28.03
2018-12-08T17:36:49.701Z,28.00
2018-12-08T17:39:23.949Z,27.50
2018-12-08T17:41:58.025Z,27.40
2018-12-08T17:44:32.083Z,27.50
2018-12-08T17:47:06.183Z,28.10
2018-12-08T17:49:41.362Z,27.83
2018-12-08T17:52:15.403Z,28.43
2018-12-08T17:54:50.733Z,27.97
2018-12-08T17:57:24.774Z,28.65
2018-12-08T17:59:59.281Z,28.50
2018-12-08T18:02:33.572Z,28.50
2018-12-08T18:05:07.884Z,28.27
2018-12-08T18:07:41.943Z,28.73
2018-12-08T18:10:16.007Z,27.87
2018-12-08T18:12:50.158Z,28.93
2018-12-08T18:15:24.327Z,27.77
2018-12-08T18:17:59.085Z,28.20
2018-12-08T18:20:34.747Z,28.23
2018-12-08T18:23:08.877Z,28.33
2018-12-08T18:25:42.929Z,28.30
2018-12-08T18:28:17.001Z,28.20
2018-12-08T18:30:52.208Z,28.97
2018-12-08T18:33:26.272Z,28.13
2018-12-08T18:36:04.526Z,27.77
2018-12-08T18:38:38.677Z,27.87
2018-12-08T18:41:12.853Z,27.53
2018-12-08T18:43:47.006Z,28.03
2018-12-08T18:46:26.113Z,27.63
2018-12-08T18:49:00.245Z,28.50
2018-12-08T18:51:34.306Z,27.53
2018-12-08T18:54:08.633Z,28.13
2018-12-08T18:56:42.702Z,28.10
2018-12-08T18:59:16.742Z,27.70
2018-12-08T19:01:50.797Z,27.60
2018-12-08T19:04:24.828Z,27.40
2018-12-08T19:06:58.886Z,27.33
2018-12-08T19:09:32.953Z,27.43
2018-12-08T19:12:06.993Z,27.43
2018-12-08T19:14:41.050Z,27.40
2018-12-08T19:17:15.789Z,27.73
2018-12-08T19:19:51.698Z,27.73
2018-12-08T19:22:25.800Z,27.87
2018-12-08T19:25:02.581Z,28.10
2018-12-08T19:27:36.638Z,27.90
2018-12-08T19:30:11.081Z,27.67
2018-12-08T19:32:45.193Z,27.83
2018-12-08T19:35:19.261Z,27.57
2018-12-08T19:37:54.448Z,27.40
2018-12-08T19:40:28.659Z,27.63
2018-12-08T19:43:03.073Z,27.77
2018-12-08T19:45:37.197Z,27.63
2018-12-08T19:48:12.312Z,27.40
2018-12-08T19:50:46.378Z,27.67
2018-12-08T19:53:24.653Z,27.77
2018-12-08T19:55:58.735Z,27.57
2018-12-08T19:58:36.665Z,27.77
2018-12-08T20:01:10.802Z,27.57
2018-12-08T20:03:44.893Z,27.47
2018-12-08T20:06:19.006Z,26.97
2018-12-08T20:08:53.074Z,27.40
2018-12-08T20:11:30.332Z,27.33
2018-12-08T20:14:04.508Z,27.50
2018-12-08T20:16:38.669Z,27.33
2018-12-08T20:19:12.762Z,27.17
2018-12-08T20:21:50.934Z,28.77
2018-12-08T20:24:25.146Z,27.67
2018-12-08T20:26:59.261Z,27.43
2018-12-08T20:29:33.447Z,28.07
2018-12-08T20:32:07.550Z,28.23
2018-12-08T20:34:41.635Z,27.67
2018-12-08T20:37:15.674Z,27.80
2018-12-08T20:39:50.464Z,27.60
2018-12-08T20:42:25.566Z,27.10
2018-12-08T20:44:59.842Z,27.03
2018-12-08T20:47:33.945Z,27.23
2018-12-08T20:50:08.474Z,27.67
2018-12-08T20:52:43.601Z,27.83
2018-12-08T20:55:17.680Z,27.73
2018-12-08T20:57:51.765Z,27.27
2018-12-08T21:00:26.929Z,27.23
2018-12-08T21:03:01.752Z,27.57
2018-12-08T21:05:36.962Z,27.10
2018-12-08T21:08:11.002Z,27.07
2018-12-08T21:10:46.303Z,27.23
2018-12-08T21:13:20.376Z,27.47
2018-12-08T21:15:54.449Z,27.70
2018-12-08T21:18:28.489Z,27.17
2018-12-08T21:21:03.148Z,28.27
2018-12-08T21:23:37.317Z,27.63
2018-12-08T21:26:11.462Z,27.83
2018-12-08T21:28:45.519Z,27.57
2018-12-08T21:31:19.849Z,27.90
2018-12-08T21:33:54.105Z,27.57
2018-12-08T21:36:28.245Z,27.40
2018-12-08T21:39:04.801Z,27.27
2018-12-08T21:41:40.004Z,27.63
2018-12-08T21:44:14.061Z,27.50
2018-12-08T21:46:48.251Z,27.50
2018-12-08T21:49:22.383Z,27.60
2018-12-08T21:51:56.449Z,27.77
2018-12-08T21:54:30.636Z,27.30
2018-12-08T21:57:04.790Z,27.10
2018-12-08T21:59:38.826Z,27.50
2018-12-08T22:02:13.060Z,27.50
2018-12-08T22:04:49.113Z,27.37
2018-12-08T22:07:23.181Z,27.23
2018-12-08T22:09:57.544Z,27.37
2018-12-08T22:12:31.649Z,27.20
2018-12-08T22:15:11.578Z,27.13
2018-12-08T22:17:46.248Z,27.17
2018-12-08T22:20:21.289Z,27.23
2018-12-08T22:22:57.477Z,27.50
2018-12-08T22:25:31.608Z,27.40
2018-12-08T22:28:05.673Z,27.43
2018-12-08T22:30:39.730Z,27.87
2018-12-08T22:33:13.908Z,27.23
2018-12-08T22:35:47.977Z,27.07
2018-12-08T22:38:22.045Z,27.30
2018-12-08T22:40:56.136Z,27.13
2018-12-08T22:43:32.316Z,26.87
2018-12-08T22:46:06.393Z,27.37
2018-12-08T22:48:40.478Z,27.40
2018-12-08T22:51:14.645Z,27.37
2018-12-08T22:53:48.697Z,27.43
2018-12-08T22:56:22.774Z,27.53
2018-12-08T22:58:56.825Z,27.43
2018-12-08T23:01:32.718Z,27.73
2018-12-08T23:04:06.862Z,27.37
2018-12-08T23:06:40.913Z,27.40
2018-12-08T23:09:14.986Z,27.30
2018-12-08T23:11:50.071Z,27.23
2018-12-08T23:14:24.263Z,26.97
2018-12-08T23:16:58.349Z,27.00
2018-12-08T23:19:32.400Z,27.33
2018-12-08T23:22:06.486Z,27.37
2018-12-08T23:24:40.566Z,27.50
2018-12-08T23:27:14.614Z,27.53
2018-12-08T23:29:51.370Z,27.43
2018-12-08T23:32:25.417Z,27.27
2018-12-08T23:35:00.504Z,27.03
2018-12-08T23:37:34.576Z,27.47
2018-12-08T23:40:08.850Z,27.43
2018-12-08T23:42:42.951Z,27.20
2018-12-08T23:45:22.150Z,27.33
2018-12-08T23:47:56.235Z,27.73
2018-12-08T23:50:30.281Z,27.70
2018-12-08T23:53:04.378Z,27.70
2018-12-08T23:55:39.425Z,27.47
2018-12-08T23:58:13.489Z,28.07
